Wetterdaten: aktuell Donnerstag, 13.12.2018 16:48
Datum Zeit Temp. A. Feuchte A. Luftdruck Regen Wind Richtung Richtung Taupunkt Windchill Windben
13.12.2018 16:48 -2,2 C 86 % 1018,0 hPa 0,0 l/m 11,7 km/h (2 Bft) N 350 -4,2 C -6,4 C 14,5 km/h (3 Bft)
13.12.2018 16:46 -2,2 C 86 % 1018,0 hPa 0,0 l/m 9,7 km/h (2 Bft) N 360 -4,2 C -5,9 C 12,9 km/h (3 Bft)
13.12.2018 16:45 -2,1 C 86 % 1018,0 hPa 0,0 l/m 9,7 km/h (2 Bft) N 360 -4,1 C -5,7 C 11,3 km/h (2 Bft)
13.12.2018 16:44 -2,1 C 86 % 1018,0 hPa 0,0 l/m 9,7 km/h (2 Bft) N 360 -4,1 C -5,7 C 12,9 km/h (3 Bft)
13.12.2018 16:43 -2,1 C 86 % 1018,0 hPa 0,0 l/m 12,9 km/h (3 Bft) N 360 -4,1 C -6,6 C 19,3 km/h (3 Bft)
13.12.2018 16:42 -2,1 C 86 % 1018,0 hPa 0,0 l/m 11,3 km/h (2 Bft) N 360 -4,1 C -6,2 C 19,3 km/h (3 Bft)
13.12.2018 16:41 -2,1 C 86 % 1018,0 hPa 0,0 l/m 11,3 km/h (2 Bft) N 360 -4,1 C -6,2 C 12,9 km/h (3 Bft)
13.12.2018 16:40 -2,1 C 86 % 1018,0 hPa 0,0 l/m 11,3 km/h (2 Bft) N 360 -4,1 C -6,2 C 14,5 km/h (3 Bft)
13.12.2018 16:39 -2,1 C 86 % 1018,0 hPa 0,0 l/m 9,7 km/h (2 Bft) N 360 -4,1 C -5,7 C 14,5 km/h (3 Bft)
13.12.2018 16:38 -2,1 C 86 % 1018,0 hPa 0,0 l/m 11,3 km/h (2 Bft) N 360 -4,1 C -6,2 C 14,5 km/h (3 Bft)
13.12.2018 16:37 -2,1 C 86 % 1018,0 hPa 0,0 l/m 14,5 km/h (3 Bft) N 360 -4,1 C -6,9 C 17,7 km/h (3 Bft)
13.12.2018 16:36 -2,1 C 85 % 1018,0 hPa 0,0 l/m 9,7 km/h (2 Bft) N 360 -4,3 C -5,7 C 14,5 km/h (3 Bft)
13.12.2018 16:35 -2,0 C 85 % 1018,0 hPa 0,0 l/m 9,7 km/h (2 Bft) N 360 -4,2 C -5,6 C 14,5 km/h (3 Bft)
13.12.2018 16:34 -2,0 C 85 % 1018,0 hPa 0,0 l/m 11,3 km/h (2 Bft) N 360 -4,2 C -6,1 C 16,1 km/h (3 Bft)
13.12.2018 16:33 -2,0 C 85 % 1018,0 hPa 0,0 l/m 9,7 km/h (2 Bft) N 360 -4,2 C -5,6 C 12,9 km/h (3 Bft)
13.12.2018 16:32 -2,0 C 85 % 1018,0 hPa 0,0 l/m 11,3 km/h (2 Bft) N 360 -4,2 C -6,1 C 14,5 km/h (3 Bft)
13.12.2018 16:31 -2,0 C 85 % 1018,0 hPa 0,0 l/m 12,9 km/h (3 Bft) N 360 -4,2 C -6,4 C 17,7 km/h (3 Bft)
13.12.2018 16:30 -2,0 C 85 % 1018,0 hPa 0,0 l/m 9,7 km/h (2 Bft) N 360 -4,2 C -5,6 C 12,9 km/h (3 Bft)
13.12.2018 16:29 -1,9 C 85 % 1018,0 hPa 0,0 l/m 9,7 km/h (2 Bft) N 360 -4,1 C -5,5 C 12,9 km/h (3 Bft)
13.12.2018 16:28 -1,9 C 85 % 1017,9 hPa 0,0 l/m 12,9 km/h (3 Bft) N 360 -4,1 C -6,3 C 17,7 km/h (3 Bft)
13.12.2018 16:27 -1,9 C 85 % 1018,0 hPa 0,0 l/m 14,5 km/h (3 Bft) N 360 -4,1 C -6,7 C 17,7 km/h (3 Bft)
13.12.2018 16:26 -1,9 C 85 % 1018,0 hPa 0,0 l/m 12,9 km/h (3 Bft) N 360 -4,1 C -6,3 C 19,3 km/h (3 Bft)
13.12.2018 16:25 -1,9 C 85 % 1018,0 hPa 0,0 l/m 11,3 km/h (2 Bft) N 360 -4,1 C -5,9 C 16,1 km/h (3 Bft)
13.12.2018 16:24 -1,9 C 85 % 1018,0 hPa 0,0 l/m 9,7 km/h (2 Bft) N 360 -4,1 C -5,5 C 16,1 km/h (3 Bft)
13.12.2018 16:23 -1,9 C 85 % 1018,0 hPa 0,0 l/m 9,7 km/h (2 Bft) N 360 -4,1 C -5,5 C 11,3 km/h (2 Bft)
13.12.2018 16:22 -1,9 C 85 % 1018,0 hPa 0,0 l/m 9,7 km/h (2 Bft) N 360 -4,1 C -5,5 C 12,9 km/h (3 Bft)
13.12.2018 16:21 -1,8 C 85 % 1017,9 hPa 0,0 l/m 11,3 km/h (2 Bft) N 360 -4,0 C -5,8 C 14,5 km/h (3 Bft)
13.12.2018 16:20 -1,8 C 85 % 1018,0 hPa 0,0 l/m 9,7 km/h (2 Bft) N 360 -4,0 C -5,4 C 14,5 km/h (3 Bft)
13.12.2018 16:19 -1,8 C 85 % 1018,0 hPa 0,0 l/m 8,0 km/h (2 Bft) N-NO 22 -4,0 C -4,9 C 9,7 km/h (2 Bft)
13.12.2018 16:18 -1,8 C 85 % 1018,0 hPa 0,0 l/m 9,7 km/h (2 Bft) N 360 -4,0 C -5,4 C 11,3 km/h (2 Bft)
13.12.2018 16:17 -1,8 C 85 % 1018,0 hPa 0,0 l/m 11,3 km/h (2 Bft) N 360 -4,0 C -5,8 C 16,1 km/h (3 Bft)
13.12.2018 16:16 -1,8 C 85 % 1018,0 hPa 0,0 l/m 8,0 km/h (2 Bft) N 360 -4,0 C -4,9 C 14,5 km/h (3 Bft)
13.12.2018 16:15 -1,8 C 85 % 1018,0 hPa 0,0 l/m 9,7 km/h (2 Bft) N 360 -4,0 C -5,4 C 12,9 km/h (3 Bft)
13.12.2018 16:14 -1,8 C 85 % 1018,0 hPa 0,0 l/m 11,3 km/h (2 Bft) N 360 -4,0 C -5,8 C 14,5 km/h (3 Bft)
13.12.2018 16:13 -1,7 C 85 % 1018,0 hPa 0,0 l/m 8,0 km/h (2 Bft) N 360 -3,9 C -4,7 C 12,9 km/h (3 Bft)
13.12.2018 16:12 -1,7 C 85 % 1018,0 hPa 0,0 l/m 12,9 km/h (3 Bft) N 360 -3,9 C -6,1 C 19,3 km/h (3 Bft)
13.12.2018 16:11 -1,7 C 85 % 1018,0 hPa 0,0 l/m 9,7 km/h (2 Bft) N 360 -3,9 C -5,3 C 12,9 km/h (3 Bft)
13.12.2018 16:10 -1,7 C 85 % 1018,0 hPa 0,0 l/m 9,7 km/h (2 Bft) N 360 -3,9 C -5,3 C 14,5 km/h (3 Bft)
13.12.2018 16:09 -1,7 C 85 % 1018,0 hPa 0,0 l/m 11,3 km/h (2 Bft) N-NO 22 -3,9 C -5,7 C 16,1 km/h (3 Bft)
13.12.2018 16:08 -1,7 C 85 % 1018,0 hPa 0,0 l/m 11,3 km/h (2 Bft) N 360 -3,9 C -5,7 C 17,7 km/h (3 Bft)
13.12.2018 16:07 -1,7 C 85 % 1018,0 hPa 0,0 l/m 9,7 km/h (2 Bft) N 360 -3,9 C -5,3 C 12,9 km/h (3 Bft)
13.12.2018 16:06 -1,7 C 85 % 1018,0 hPa 0,0 l/m 11,3 km/h (2 Bft) N 360 -3,9 C -5,7 C 14,5 km/h (3 Bft)
13.12.2018 16:05 -1,7 C 85 % 1018,0 hPa 0,0 l/m 14,5 km/h (3 Bft) N 360 -3,9 C -6,4 C 17,7 km/h (3 Bft)
13.12.2018 16:04 -1,7 C 85 % 1017,9 hPa 0,0 l/m 12,9 km/h (3 Bft) N 360 -3,9 C -6,1 C 16,1 km/h (3 Bft)
13.12.2018 16:03 -1,7 C 85 % 1017,9 hPa 0,0 l/m 12,9 km/h (3 Bft) N 360 -3,9 C -6,1 C 16,1 km/h (3 Bft)
13.12.2018 16:02 -1,7 C 85 % 1017,9 hPa 0,0 l/m 11,3 km/h (2 Bft) N-NO 22 -3,9 C -5,7 C 16,1 km/h (3 Bft)
13.12.2018 16:01 -1,6 C 85 % 1017,9 hPa 0,0 l/m 12,9 km/h (3 Bft) N 360 -3,8 C -5,9 C 16,1 km/h (3 Bft)
13.12.2018 16:00 -1,6 C 85 % 1017,9 hPa 0,0 l/m 16,1 km/h (3 Bft) N 360 -3,8 C -6,6 C 19,3 km/h (3 Bft)
13.12.2018 15:59 -1,6 C 84 % 1017,8 hPa 0,0 l/m 14,5 km/h (3 Bft) N 360 -3,9 C -6,3 C 19,3 km/h (3 Bft)
13.12.2018 15:58 -1,6 C 84 % 1017,9 hPa 0,0 l/m 12,9 km/h (3 Bft) N 360 -3,9 C -5,9 C 19,3 km/h (3 Bft)
13.12.2018 15:57 -1,6 C 84 % 1017,8 hPa 0,0 l/m 12,9 km/h (3 Bft) N 360 -3,9 C -5,9 C 17,7 km/h (3 Bft)
13.12.2018 15:56 -1,6 C 84 % 1017,9 hPa 0,0 l/m 12,9 km/h (3 Bft) N 360 -3,9 C -5,9 C 17,7 km/h (3 Bft)
13.12.2018 15:55 -1,6 C 84 % 1017,9 hPa 0,0 l/m 11,3 km/h (2 Bft) N 360 -3,9 C -5,6 C 16,1 km/h (3 Bft)
13.12.2018 15:54 -1,6 C 84 % 1017,9 hPa 0,0 l/m 9,7 km/h (2 Bft) N 360 -3,9 C -5,1 C 14,5 km/h (3 Bft)
13.12.2018 15:53 -1,6 C 84 % 1017,9 hPa 0,0 l/m 11,3 km/h (2 Bft) N 360 -3,9 C -5,6 C 14,5 km/h (3 Bft)
13.12.2018 15:52 -1,6 C 84 % 1017,9 hPa 0,0 l/m 11,3 km/h (2 Bft) N-NW 337 -3,9 C -5,6 C 16,1 km/h (3 Bft)
13.12.2018 15:51 -1,5 C 84 % 1017,9 hPa 0,0 l/m 9,7 km/h (2 Bft) N 360 -3,8 C -5,0 C 12,9 km/h (3 Bft)
13.12.2018 15:50 -1,5 C 84 % 1017,8 hPa 0,0 l/m 8,0 km/h (2 Bft) N 360 -3,8 C -4,5 C 12,9 km/h (3 Bft)
13.12.2018 15:49 -1,5 C 84 % 1017,9 hPa 0,0 l/m 11,3 km/h (2 Bft) N 360 -3,8 C -5,4 C 16,1 km/h (3 Bft)
13.12.2018 15:48 -1,5 C 84 % 1017,8 hPa 0,0 l/m 11,3 km/h (2 Bft) N-NO 22 -3,8 C -5,4 C 16,1 km/h (3 Bft)
13.12.2018 15:47 -1,5 C 84 % 1017,8 hPa 0,0 l/m 11,3 km/h (2 Bft) N 360 -3,8 C -5,4 C 14,5 km/h (3 Bft)
13.12.2018 15:46 -1,4 C 84 % 1017,8 hPa 0,0 l/m 9,7 km/h (2 Bft) N-NW 337 -3,7 C -4,9 C 14,5 km/h (3 Bft)
13.12.2018 15:45 -1,4 C 84 % 1017,8 hPa 0,0 l/m 11,3 km/h (2 Bft) N 360 -3,7 C -5,3 C 16,1 km/h (3 Bft)
13.12.2018 15:44 -1,4 C 84 % 1017,8 hPa 0,0 l/m 9,7 km/h (2 Bft) N 360 -3,7 C -4,9 C 12,9 km/h (3 Bft)
13.12.2018 15:43 -1,4 C 84 % 1017,8 hPa 0,0 l/m 9,7 km/h (2 Bft) N 360 -3,7 C -4,9 C 12,9 km/h (3 Bft)
13.12.2018 15:42 -1,4 C 84 % 1017,8 hPa 0,0 l/m 8,0 km/h (2 Bft) N 360 -3,7 C -4,4 C 12,9 km/h (3 Bft)
13.12.2018 15:41 -1,4 C 84 % 1017,8 hPa 0,0 l/m 9,7 km/h (2 Bft) N 360 -3,7 C -4,9 C 12,9 km/h (3 Bft)
13.12.2018 15:40 -1,3 C 84 % 1017,8 hPa 0,0 l/m 11,3 km/h (2 Bft) N 360 -3,6 C -5,2 C 14,5 km/h (3 Bft)
13.12.2018 15:39 -1,3 C 84 % 1017,8 hPa 0,0 l/m 12,9 km/h (3 Bft) N-NO 22 -3,6 C -5,6 C 16,1 km/h (3 Bft)
13.12.2018 15:38 -1,3 C 84 % 1017,8 hPa 0,0 l/m 11,3 km/h (2 Bft) N 360 -3,6 C -5,2 C 17,7 km/h (3 Bft)
13.12.2018 15:37 -1,3 C 84 % 1017,7 hPa 0,0 l/m 12,9 km/h (3 Bft) N 360 -3,6 C -5,6 C 16,1 km/h (3 Bft)
13.12.2018 15:36 -1,3 C 84 % 1017,8 hPa 0,0 l/m 11,3 km/h (2 Bft) N 360 -3,6 C -5,2 C 16,1 km/h (3 Bft)
13.12.2018 15:35 -1,3 C 84 % 1017,7 hPa 0,0 l/m 11,3 km/h (2 Bft) N 360 -3,6 C -5,2 C 17,7 km/h (3 Bft)
13.12.2018 15:34 -1,3 C 84 % 1017,7 hPa 0,0 l/m 12,9 km/h (3 Bft) N 360 -3,6 C -5,6 C 16,1 km/h (3 Bft)
13.12.2018 15:33 -1,3 C 83 % 1017,7 hPa 0,0 l/m 14,5 km/h (3 Bft) N 360 -3,8 C -5,9 C 17,7 km/h (3 Bft)
13.12.2018 15:32 -1,2 C 83 % 1017,7 hPa 0,0 l/m 9,7 km/h (2 Bft) N 360 -3,7 C -4,7 C 12,9 km/h (3 Bft)
13.12.2018 15:31 -1,2 C 83 % 1017,8 hPa 0,0 l/m 11,3 km/h (2 Bft) N 360 -3,7 C -5,1 C 16,1 km/h (3 Bft)
13.12.2018 15:30 -1,2 C 83 % 1017,8 hPa 0,0 l/m 9,7 km/h (2 Bft) N 360 -3,7 C -4,7 C 12,9 km/h (3 Bft)
13.12.2018 15:29 -1,2 C 83 % 1017,8 hPa 0,0 l/m 9,7 km/h (2 Bft) N 360 -3,7 C -4,7 C 12,9 km/h (3 Bft)
13.12.2018 15:28 -1,2 C 83 % 1017,7 hPa 0,0 l/m 9,7 km/h (2 Bft) N 360 -3,7 C -4,7 C 14,5 km/h (3 Bft)
13.12.2018 15:27 -1,2 C 83 % 1017,7 hPa 0,0 l/m 9,7 km/h (2 Bft) N 360 -3,7 C -4,7 C 14,5 km/h (3 Bft)
13.12.2018 15:26 -1,1 C 83 % 1017,8 hPa 0,0 l/m 9,7 km/h (2 Bft) N 360 -3,6 C -4,5 C 14,5 km/h (3 Bft)
13.12.2018 15:25 -1,1 C 83 % 1017,7 hPa 0,0 l/m 11,3 km/h (2 Bft) N 360 -3,6 C -5,0 C 12,9 km/h (3 Bft)
13.12.2018 15:24 -1,1 C 83 % 1017,7 hPa 0,0 l/m 8,0 km/h (2 Bft) N 360 -3,6 C -4,0 C 11,3 km/h (2 Bft)
13.12.2018 15:23 -1,1 C 83 % 1017,7 hPa 0,0 l/m 12,9 km/h (3 Bft) N 360 -3,6 C -5,3 C 16,1 km/h (3 Bft)
13.12.2018 15:22 -1,1 C 83 % 1017,7 hPa 0,0 l/m 11,3 km/h (2 Bft) N 360 -3,6 C -5,0 C 12,9 km/h (3 Bft)
13.12.2018 15:21 -1,1 C 83 % 1017,7 hPa 0,0 l/m 11,3 km/h (2 Bft) N 360 -3,6 C -5,0 C 14,5 km/h (3 Bft)
13.12.2018 15:20 -1,1 C 83 % 1017,7 hPa 0,0 l/m 12,9 km/h (3 Bft) N 360 -3,6 C -5,3 C 16,1 km/h (3 Bft)
13.12.2018 15:19 -1,1 C 83 % 1017,7 hPa 0,0 l/m 9,7 km/h (2 Bft) N-NO 22 -3,6 C -4,5 C 11,3 km/h (2 Bft)
13.12.2018 15:18 -1,0 C 83 % 1017,7 hPa 0,0 l/m 11,3 km/h (2 Bft) N-NO 22 -3,5 C -4,8 C 16,1 km/h (3 Bft)
13.12.2018 15:17 -1,0 C 82 % 1017,7 hPa 0,0 l/m 12,9 km/h (3 Bft) N 360 -3,7 C -5,2 C 16,1 km/h (3 Bft)
13.12.2018 15:16 -1,0 C 82 % 1017,7 hPa 0,0 l/m 11,3 km/h (2 Bft) N 360 -3,7 C -4,8 C 16,1 km/h (3 Bft)
13.12.2018 15:15 -1,0 C 83 % 1017,7 hPa 0,0 l/m 14,5 km/h (3 Bft) N 360 -3,5 C -5,6 C 19,3 km/h (3 Bft)
13.12.2018 15:14 -1,0 C 83 % 1017,7 hPa 0,0 l/m 11,3 km/h (2 Bft) N 360 -3,5 C -4,8 C 14,5 km/h (3 Bft)
13.12.2018 15:13 -1,0 C 82 % 1017,7 hPa 0,0 l/m 9,7 km/h (2 Bft) N-NO 22 -3,7 C -4,4 C 16,1 km/h (3 Bft)
13.12.2018 15:12 -1,0 C 82 % 1017,7 hPa 0,0 l/m 11,3 km/h (2 Bft) N-NO 22 -3,7 C -4,8 C 14,5 km/h (3 Bft)
13.12.2018 15:11 -0,9 C 82 % 1017,7 hPa 0,0 l/m 8,0 km/h (2 Bft) N 360 -3,6 C -3,8 C 14,5 km/h (3 Bft)
13.12.2018 15:10 -0,9 C 82 % 1017,7 hPa 0,0 l/m 6,4 km/h (2 Bft) N-NO 22 -3,6 C -3,2 C 12,9 km/h (3 Bft)
13.12.2018 15:09 -0,9 C 82 % 1017,7 hPa 0,0 l/m 12,9 km/h (3 Bft) N-NO 22 -3,6 C -5,1 C 16,1 km/h (3 Bft)
13.12.2018 15:08 -0,9 C 82 % 1017,7 hPa 0,0 l/m 12,9 km/h (3 Bft) N-NO 22 -3,6 C -5,1 C 16,1 km/h (3 Bft)
_ Min-Zeit 05:32 09:59 14:01 - 17:38 - - 07:30 09:07 17:38
Minimum _ -2,4 C 78 % 1017,6 hPa - 0,0 km/h (0 Bft) - - -4,7 C -7,3 C 0,0 km/h (0 Bft)
_ Max-Zeit 17:00 21:26 18:18 17:00 09:07 - - 17:18 17:02 09:07
Maximum _ 1,2 C 92 % 1022,4 hPa 0,0 l/m 20,0 km/h
N-NO (4 Bft)
- - -0,7 C 1,1 C 25,7 km/h
N-NO (4 Bft)
Durchschnitt _ -0,8 C 85 % 1020,4 hPa #0,0 l/m 9,3 km/h (2 Bft) N - -2,9 C -3,9 C 13,2 km/h (3 Bft)
Wetterstation Eggerszell